createdAt,value
2022-08-11T00:01:09.359Z,3.2
2022-08-11T00:02:25.657Z,3.2
2022-08-11T00:03:41.944Z,3.3
2022-08-11T00:04:58.236Z,3.1
2022-08-11T00:06:14.542Z,3.1
2022-08-11T00:07:29.834Z,2.9
2022-08-11T00:08:46.145Z,3
2022-08-11T00:10:02.427Z,3.1
2022-08-11T00:11:18.716Z,3.2
2022-08-11T00:12:35.015Z,2.9
2022-08-11T00:13:51.305Z,3.3
2022-08-11T00:15:07.596Z,3.3
2022-08-11T00:16:23.891Z,3.4
2022-08-11T00:17:40.204Z,3.2
2022-08-11T00:18:56.487Z,3.5
2022-08-11T00:20:12.776Z,3.5
2022-08-11T00:21:29.072Z,3.5
2022-08-11T00:22:45.358Z,3.4
2022-08-11T00:24:00.666Z,3.6
2022-08-11T00:25:16.970Z,3.9
2022-08-11T00:26:33.257Z,3.9
2022-08-11T00:27:49.554Z,3.4
2022-08-11T00:29:05.855Z,3.7
2022-08-11T00:30:22.150Z,3.8
2022-08-11T00:31:38.437Z,3.8
2022-08-11T00:32:54.730Z,3.7
2022-08-11T00:34:11.019Z,3.8
2022-08-11T00:35:27.326Z,3.8
2022-08-11T00:36:43.619Z,3.5
2022-08-11T00:37:59.896Z,3.6
2022-08-11T00:39:16.204Z,4
2022-08-11T00:40:31.496Z,3.8
2022-08-11T00:41:47.802Z,3.7
2022-08-11T00:43:04.101Z,3.9
2022-08-11T00:44:20.384Z,3.8
2022-08-11T00:45:36.683Z,3.8
2022-08-11T00:46:52.969Z,4.1
2022-08-11T00:48:09.275Z,3.8
2022-08-11T00:49:25.556Z,3.7
2022-08-11T00:50:41.858Z,3.8
2022-08-11T00:51:58.147Z,3.9
2022-08-11T00:53:14.453Z,3.7
2022-08-11T00:54:30.738Z,3.9
2022-08-11T00:55:47.033Z,3.8
2022-08-11T00:57:02.346Z,3.8
2022-08-11T00:58:18.626Z,4.4
2022-08-11T00:59:34.924Z,4.6
2022-08-11T01:00:51.214Z,4.3
2022-08-11T01:02:07.502Z,4.2
2022-08-11T01:03:23.808Z,4.1
2022-08-11T01:04:40.095Z,4.2
2022-08-11T01:05:56.395Z,4.6
2022-08-11T01:07:12.682Z,4.2
2022-08-11T01:08:28.976Z,4.1
2022-08-11T01:09:45.276Z,4.3
2022-08-11T01:11:01.555Z,4.6
2022-08-11T01:12:17.858Z,4.2
2022-08-11T01:13:33.161Z,4.4
2022-08-11T01:14:49.467Z,4
2022-08-11T01:16:05.750Z,4.2
2022-08-11T01:17:22.032Z,4.1
2022-08-11T01:18:38.342Z,4.1
2022-08-11T01:19:54.627Z,4.6
2022-08-11T01:21:10.924Z,4
2022-08-11T01:22:27.224Z,4.3
2022-08-11T01:23:43.517Z,4.6
2022-08-11T01:24:59.806Z,3.8
2022-08-11T01:26:16.088Z,4
2022-08-11T01:27:32.389Z,4.5
2022-08-11T01:28:48.695Z,4.4
2022-08-11T01:30:03.988Z,4.1
2022-08-11T01:31:20.289Z,4.5
2022-08-11T01:32:36.574Z,4.4
2022-08-11T01:33:52.869Z,4.4
2022-08-11T01:35:09.166Z,4.1
2022-08-11T01:36:25.465Z,4.3
2022-08-11T01:37:41.753Z,4.3
2022-08-11T01:38:58.036Z,4.4
2022-08-11T01:40:14.344Z,4.2
2022-08-11T01:41:30.621Z,4.3
2022-08-11T01:42:46.917Z,4.5
2022-08-11T01:44:03.212Z,4.3
2022-08-11T01:45:19.514Z,4.3
2022-08-11T01:46:34.823Z,4.2
2022-08-11T01:47:51.101Z,4.7
2022-08-11T01:49:07.405Z,4.3
2022-08-11T01:50:23.702Z,5
2022-08-11T01:51:39.981Z,4.3
2022-08-11T01:52:56.277Z,4.8
2022-08-11T01:54:12.577Z,4.7
2022-08-11T01:55:28.858Z,4.6
2022-08-11T01:56:45.168Z,4.5
2022-08-11T01:58:01.461Z,4.6
2022-08-11T01:59:17.749Z,5
2022-08-11T02:00:34.040Z,4.7
2022-08-11T02:01:50.334Z,4.6
2022-08-11T02:03:05.643Z,4.4
2022-08-11T02:04:21.931Z,5
2022-08-11T02:05:38.229Z,4.5
2022-08-11T02:06:54.521Z,4.7
2022-08-11T02:08:10.814Z,4.5
2022-08-11T02:09:27.104Z,4.8
2022-08-11T02:10:43.392Z,4.7
2022-08-11T02:11:59.689Z,4.4
2022-08-11T02:13:15.977Z,4.7
2022-08-11T02:14:32.284Z,4.4
2022-08-11T02:15:48.565Z,4.2
2022-08-11T02:17:04.870Z,4.7
2022-08-11T02:18:21.159Z,4.5
2022-08-11T02:19:36.472Z,4.8
2022-08-11T02:20:52.752Z,4.8
2022-08-11T02:22:09.045Z,4.9
2022-08-11T02:23:25.354Z,4.6
2022-08-11T02:24:41.638Z,5.4
2022-08-11T02:25:57.942Z,4.5
2022-08-11T02:27:14.223Z,4.6
2022-08-11T02:28:30.524Z,4.7
2022-08-11T02:29:46.823Z,4.6
2022-08-11T02:31:03.098Z,4.6
2022-08-11T02:32:19.403Z,4.7
2022-08-11T02:33:35.682Z,4.8
2022-08-11T02:34:51.976Z,4.8
2022-08-11T02:36:07.287Z,5.1
2022-08-11T02:37:23.580Z,5.5
2022-08-11T02:38:39.877Z,5
2022-08-11T02:39:56.163Z,4.6
2022-08-11T02:41:12.463Z,5.1
2022-08-11T02:42:28.762Z,4.9
2022-08-11T02:43:45.058Z,4.7
2022-08-11T02:45:01.358Z,4.9
2022-08-11T02:46:17.634Z,4.8
2022-08-11T02:47:33.930Z,5.4
2022-08-11T02:48:50.228Z,5.3
2022-08-11T02:50:06.523Z,5.2
2022-08-11T02:51:22.812Z,5
2022-08-11T02:52:38.113Z,4.9
2022-08-11T02:53:54.404Z,5.2
2022-08-11T02:55:10.702Z,4.8
2022-08-11T02:56:27.002Z,5
2022-08-11T02:57:43.285Z,5.4
2022-08-11T02:58:59.591Z,5
2022-08-11T03:00:14.907Z,4.9
2022-08-11T03:01:31.189Z,5.1
2022-08-11T03:02:47.482Z,5
2022-08-11T03:04:03.786Z,5.1
2022-08-11T03:05:20.064Z,5.4
2022-08-11T03:06:36.359Z,5.1
2022-08-11T03:07:52.651Z,5.3
2022-08-11T03:09:08.942Z,5
2022-08-11T03:10:25.239Z,5.4
2022-08-11T03:11:41.529Z,5.2
2022-08-11T03:12:57.841Z,5
2022-08-11T03:14:14.119Z,4.9
2022-08-11T03:15:30.371Z,5.3
2022-08-11T03:16:45.663Z,5.7
2022-08-11T03:18:01.969Z,5.4
2022-08-11T03:19:18.214Z,4.8
2022-08-11T03:20:34.443Z,5.3
2022-08-11T03:21:50.738Z,5.1
2022-08-11T03:23:07.052Z,5.2
2022-08-11T03:24:23.325Z,5.1
2022-08-11T03:25:39.585Z,5.3
2022-08-11T03:26:55.883Z,4.9
2022-08-11T03:28:12.176Z,5.2
2022-08-11T03:29:28.411Z,5.5
2022-08-11T03:30:44.659Z,5.6
2022-08-11T03:32:00.902Z,5.9
2022-08-11T03:33:16.150Z,5.5
2022-08-11T03:34:32.402Z,5.4
2022-08-11T03:35:48.637Z,5.7
2022-08-11T03:37:04.875Z,6.1
2022-08-11T03:38:21.109Z,5.7
2022-08-11T03:39:37.359Z,5.2
2022-08-11T03:40:53.593Z,5.7
2022-08-11T03:42:09.829Z,5.1
2022-08-11T03:43:26.059Z,5.5
2022-08-11T03:44:42.312Z,5.7
2022-08-11T03:45:58.554Z,5.6
2022-08-11T03:47:14.774Z,6.3
2022-08-11T03:48:31.029Z,5.6
2022-08-11T03:49:46.279Z,5.9
2022-08-11T03:51:02.527Z,5.6
2022-08-11T03:52:18.755Z,5.8
2022-08-11T03:53:35.004Z,5.8
2022-08-11T03:54:51.225Z,6.4
2022-08-11T03:56:07.461Z,6.1
2022-08-11T03:57:23.716Z,6.3
2022-08-11T03:58:39.957Z,5.8
2022-08-11T03:59:56.181Z,6.1
2022-08-11T04:01:12.425Z,5.9
2022-08-11T04:02:28.674Z,5.5
2022-08-11T04:03:44.900Z,5.6
2022-08-11T04:05:01.152Z,5.7
2022-08-11T04:06:16.394Z,5.5
2022-08-11T04:07:32.633Z,5.7
2022-08-11T04:08:48.884Z,5.6
2022-08-11T04:10:05.112Z,5.5
2022-08-11T04:11:21.345Z,5.8
2022-08-11T04:12:37.602Z,6
2022-08-11T04:13:53.831Z,5.3
2022-08-11T04:15:10.062Z,5.4
2022-08-11T04:16:26.300Z,5.6
2022-08-11T04:17:42.539Z,5.4
2022-08-11T04:18:58.788Z,5.1
2022-08-11T04:20:15.021Z,5.5
2022-08-11T04:21:31.266Z,5.4
2022-08-11T04:22:46.525Z,5.1
2022-08-11T04:24:02.762Z,5.4
2022-08-11T04:25:18.993Z,5.5
2022-08-11T04:26:35.253Z,5.5
2022-08-11T04:27:51.480Z,5
2022-08-11T04:29:07.710Z,5.6
2022-08-11T04:30:23.960Z,5.8
2022-08-11T04:31:40.199Z,5.6
2022-08-11T04:32:56.436Z,5.8
2022-08-11T04:34:12.663Z,5.6
2022-08-11T04:35:28.921Z,5.5
2022-08-11T04:36:45.159Z,5.6
2022-08-11T04:38:01.387Z,4.9
2022-08-11T04:39:16.650Z,5.4
2022-08-11T04:40:32.877Z,5.3
2022-08-11T04:41:49.124Z,5.5
2022-08-11T04:43:05.366Z,5.2
2022-08-11T04:44:21.619Z,5.2
2022-08-11T04:45:37.857Z,5.4
2022-08-11T04:46:54.071Z,5.1
2022-08-11T04:48:10.328Z,4.9
2022-08-11T04:49:26.551Z,5.4
2022-08-11T04:50:42.798Z,5.4
2022-08-11T04:51:59.038Z,5.7
2022-08-11T04:53:15.270Z,5.1
2022-08-11T04:54:31.519Z,5.2
2022-08-11T04:55:46.766Z,4.9
2022-08-11T04:57:03.017Z,4.9
2022-08-11T04:58:19.247Z,5.1
2022-08-11T04:59:35.479Z,5.1
2022-08-11T05:02:07.956Z,5.7
2022-08-11T05:03:24.203Z,4.8
2022-08-11T05:04:40.451Z,5
2022-08-11T05:05:56.677Z,5
2022-08-11T05:07:12.916Z,5.1
2022-08-11T05:08:29.174Z,5
2022-08-11T05:09:45.405Z,5
2022-08-11T05:11:01.633Z,4.9
2022-08-11T05:12:16.886Z,4.8
2022-08-11T05:13:33.128Z,4.9
2022-08-11T05:14:49.379Z,5
2022-08-11T05:16:05.614Z,4.8
2022-08-11T05:17:21.851Z,4.7
2022-08-11T05:18:38.086Z,4.9
2022-08-11T05:19:54.328Z,4.9
2022-08-11T05:21:10.566Z,4.7
2022-08-11T05:22:26.797Z,4.9
2022-08-11T05:23:43.039Z,5.1
2022-08-11T05:24:59.283Z,4.6
2022-08-11T05:26:15.513Z,4.9
2022-08-11T05:27:31.771Z,4.9
2022-08-11T05:28:47.012Z,4.8
2022-08-11T05:30:03.272Z,4.7
2022-08-11T05:31:19.496Z,4.9
2022-08-11T05:32:35.739Z,4.8
2022-08-11T05:33:51.983Z,4.6
2022-08-11T05:35:08.211Z,4.5
2022-08-11T05:36:24.461Z,4.6
2022-08-11T05:37:40.691Z,4.7
2022-08-11T05:38:56.936Z,4.9
2022-08-11T05:40:13.169Z,4.6
2022-08-11T05:41:29.417Z,4.6
2022-08-11T05:42:45.653Z,4.5
2022-08-11T05:44:01.885Z,4.5
2022-08-11T05:45:17.144Z,4.5
2022-08-11T05:46:33.374Z,4.6
2022-08-11T05:47:49.612Z,4.7
2022-08-11T05:49:05.863Z,4.7
2022-08-11T05:50:22.088Z,4.3
2022-08-11T05:51:38.332Z,4.4
2022-08-11T05:52:54.585Z,4.2
2022-08-11T05:54:10.814Z,4.4
2022-08-11T05:55:27.064Z,4.2
2022-08-11T05:56:43.305Z,4.1
2022-08-11T05:57:59.529Z,4.2
2022-08-11T05:59:15.778Z,4.3
2022-08-11T06:00:32.011Z,3.9
2022-08-11T06:01:47.275Z,4.2
2022-08-11T06:03:03.507Z,4.2
2022-08-11T06:04:19.741Z,4.4
2022-08-11T06:05:35.980Z,4.3
2022-08-11T06:06:52.218Z,4.4
2022-08-11T06:08:08.478Z,4.4
2022-08-11T06:09:24.707Z,4.2
2022-08-11T06:10:40.942Z,4.3
2022-08-11T06:11:57.185Z,3.9
2022-08-11T06:13:13.421Z,3.7
2022-08-11T06:14:29.659Z,3.7
2022-08-11T06:15:45.900Z,4
2022-08-11T06:17:02.137Z,3.8
2022-08-11T06:18:17.405Z,4.1
2022-08-11T06:19:33.642Z,4.3
2022-08-11T06:20:49.880Z,3.8
2022-08-11T06:22:06.108Z,3.8
2022-08-11T06:23:22.361Z,3.7
2022-08-11T06:24:38.586Z,3.8
2022-08-11T06:25:54.826Z,3.8
2022-08-11T06:27:11.065Z,3.9
2022-08-11T06:28:27.322Z,3.5
2022-08-11T06:29:43.555Z,3.6
2022-08-11T06:30:59.793Z,3.8
2022-08-11T06:32:16.025Z,3.8
2022-08-11T06:33:32.276Z,3.5
2022-08-11T06:34:47.534Z,3.8
2022-08-11T06:36:03.765Z,3.6
2022-08-11T06:37:20.013Z,3.5
2022-08-11T06:38:36.241Z,3.9
2022-08-11T06:39:52.486Z,3.5
2022-08-11T06:41:08.717Z,3.2
2022-08-11T06:42:24.958Z,3.4
2022-08-11T06:43:41.199Z,3
2022-08-11T06:44:57.436Z,3.1
2022-08-11T06:46:13.688Z,3.5
2022-08-11T06:47:29.923Z,3.2
2022-08-11T06:48:46.159Z,3
2022-08-11T06:50:02.393Z,3
2022-08-11T06:51:17.648Z,2.9
2022-08-11T06:52:33.887Z,2.9
2022-08-11T06:53:50.139Z,3.1
2022-08-11T06:55:06.380Z,2.9
2022-08-11T06:56:22.618Z,3.1
2022-08-11T06:57:38.864Z,3.5
2022-08-11T06:58:55.097Z,3.3
2022-08-11T07:00:11.332Z,3
2022-08-11T07:01:27.576Z,2.8
2022-08-11T07:02:43.816Z,2.8
2022-08-11T07:04:00.052Z,3.1
2022-08-11T07:05:16.291Z,2.6
2022-08-11T07:06:32.527Z,2.4
2022-08-11T07:07:47.783Z,2.7
2022-08-11T07:09:04.036Z,2.6
2022-08-11T07:10:20.278Z,2.7
2022-08-11T07:11:36.502Z,2.8
2022-08-11T07:12:52.758Z,2.4
2022-08-11T07:14:08.982Z,2.4
2022-08-11T07:15:24.242Z,2.6
2022-08-11T07:16:40.494Z,2.7
2022-08-11T07:17:56.728Z,2.6
2022-08-11T07:19:12.971Z,2.6
2022-08-11T07:20:29.205Z,2.8
2022-08-11T07:21:45.463Z,2.5
2022-08-11T07:23:01.689Z,2.5
2022-08-11T07:24:17.932Z,2.9
2022-08-11T07:25:34.170Z,2.5
2022-08-11T07:26:50.408Z,2.6
2022-08-11T07:28:06.648Z,2.4
2022-08-11T07:29:22.890Z,2.6
2022-08-11T07:30:39.136Z,2.6
2022-08-11T07:31:54.393Z,2.6
2022-08-11T07:33:10.620Z,2.5
2022-08-11T07:34:26.879Z,2.6
2022-08-11T07:35:43.103Z,2.3
2022-08-11T07:36:59.353Z,2.3
2022-08-11T07:40:48.083Z,2.1
2022-08-11T07:42:04.309Z,2.3
2022-08-11T07:43:20.560Z,2.4
2022-08-11T07:44:36.797Z,2.5
2022-08-11T07:45:53.026Z,2.1
2022-08-11T07:47:09.279Z,2.2
2022-08-11T07:48:24.529Z,2.4
2022-08-11T07:49:40.773Z,2.1
2022-08-11T07:50:57.023Z,2.4
2022-08-11T07:52:13.244Z,2.5
2022-08-11T07:53:29.483Z,2.4
2022-08-11T07:56:01.965Z,2.4
2022-08-11T07:57:17.246Z,2.4
2022-08-11T07:58:32.490Z,2.2
2022-08-11T07:59:48.742Z,2.1
2022-08-11T08:01:04.978Z,2.2
2022-08-11T08:02:21.204Z,2.5
2022-08-11T08:03:37.457Z,2.3
2022-08-11T08:04:53.698Z,2.5
2022-08-11T08:06:09.925Z,2.4
2022-08-11T08:07:26.183Z,2.8
2022-08-11T08:08:42.418Z,2.5
2022-08-11T08:09:58.664Z,2.8
2022-08-11T08:11:13.907Z,2.3
2022-08-11T08:12:29.179Z,2.4
2022-08-11T08:13:44.438Z,2.2
2022-08-11T08:14:59.697Z,2.2
2022-08-11T08:16:15.930Z,2.2
2022-08-11T08:17:32.162Z,2.1
2022-08-11T08:18:48.416Z,2.5
2022-08-11T08:20:04.660Z,2.2
2022-08-11T08:21:20.894Z,2.6
2022-08-11T08:22:37.127Z,2.5
2022-08-11T08:23:53.361Z,2.2
2022-08-11T08:25:09.607Z,2.1
2022-08-11T08:26:25.844Z,2.2
2022-08-11T08:27:42.090Z,2.2
2022-08-11T08:28:58.336Z,2.3
2022-08-11T08:30:14.582Z,2
2022-08-11T08:31:29.828Z,2.3
2022-08-11T08:32:46.060Z,2.4
2022-08-11T08:34:02.299Z,2.1
2022-08-11T08:35:18.551Z,2.3
2022-08-11T08:36:34.787Z,2.1
2022-08-11T08:37:51.017Z,2.1
2022-08-11T08:39:07.262Z,2.3
2022-08-11T08:40:22.512Z,2.2
2022-08-11T08:41:37.786Z,2.3
2022-08-11T08:42:54.023Z,2
2022-08-11T08:44:10.253Z,2.3
2022-08-11T08:45:26.498Z,2
2022-08-11T08:46:42.725Z,2
2022-08-11T08:47:58.965Z,2.1
2022-08-11T08:49:15.206Z,2.1
2022-08-11T08:50:31.453Z,2
2022-08-11T08:51:47.690Z,2
2022-08-11T08:53:03.935Z,2.4
2022-08-11T08:54:20.179Z,1.9
2022-08-11T08:55:36.403Z,1.8
2022-08-11T08:56:52.655Z,2.1
2022-08-11T08:58:07.903Z,2.1
2022-08-11T08:59:24.147Z,1.9
2022-08-11T09:00:40.375Z,2
2022-08-11T09:01:56.617Z,1.9
2022-08-11T09:03:12.857Z,2.2
2022-08-11T09:04:29.107Z,2.2
2022-08-11T09:05:45.336Z,2
2022-08-11T09:07:01.572Z,2.1
2022-08-11T09:08:17.824Z,2.2
2022-08-11T09:09:34.058Z,2
2022-08-11T09:10:50.296Z,2.1
2022-08-11T09:12:06.527Z,1.9
2022-08-11T09:13:22.765Z,1.8
2022-08-11T09:14:38.024Z,2.2
2022-08-11T09:15:54.266Z,2.3
2022-08-11T09:17:10.499Z,2.1
2022-08-11T09:18:26.754Z,2.3
2022-08-11T09:19:42.990Z,2.3
2022-08-11T09:20:59.000Z,2.3
2022-08-11T09:22:15.463Z,2.2
2022-08-11T09:23:31.702Z,2
2022-08-11T09:24:47.931Z,1.9
2022-08-11T09:26:04.178Z,2
2022-08-11T09:27:20.415Z,2.2
2022-08-11T09:28:36.659Z,2.3
2022-08-11T09:29:52.903Z,2.1
2022-08-11T09:31:08.156Z,2.1
2022-08-11T09:32:24.392Z,1.9
2022-08-11T09:33:40.620Z,2
2022-08-11T09:34:56.873Z,2
2022-08-11T09:36:13.116Z,1.8
2022-08-11T09:37:29.340Z,1.9
2022-08-11T09:38:45.580Z,2
2022-08-11T09:40:01.827Z,2
2022-08-11T09:41:18.061Z,1.9
2022-08-11T09:42:34.305Z,2.1
2022-08-11T09:43:50.541Z,1.8
2022-08-11T09:45:06.773Z,2.5
2022-08-11T09:46:23.015Z,1.9
2022-08-11T09:47:38.270Z,1.9
2022-08-11T09:48:54.510Z,1.9
2022-08-11T09:50:10.742Z,2
2022-08-11T09:51:26.982Z,2.1
2022-08-11T09:52:43.223Z,1.9
2022-08-11T09:53:59.464Z,2.1
2022-08-11T09:55:15.709Z,2
2022-08-11T09:56:31.952Z,2
2022-08-11T09:57:48.185Z,1.9
2022-08-11T09:59:04.409Z,2
2022-08-11T10:00:20.659Z,2
2022-08-11T10:01:36.901Z,1.7
2022-08-11T10:02:53.136Z,1.9
2022-08-11T10:04:08.397Z,1.9
2022-08-11T10:05:24.627Z,1.9
2022-08-11T10:06:40.858Z,2.2
2022-08-11T10:07:57.095Z,2
2022-08-11T10:09:13.348Z,2
2022-08-11T10:10:29.581Z,2.1
2022-08-11T10:11:45.811Z,2.1
2022-08-11T10:13:02.061Z,2.1
2022-08-11T10:14:18.304Z,2
2022-08-11T10:15:34.527Z,2.1
2022-08-11T10:16:50.768Z,2.2
2022-08-11T10:18:07.005Z,2.2
2022-08-11T10:19:23.247Z,2
2022-08-11T10:20:38.512Z,2.5
2022-08-11T10:21:54.736Z,2.3
2022-08-11T10:23:10.975Z,1.9
2022-08-11T10:24:27.219Z,1.7
2022-08-11T10:25:43.452Z,1.9
2022-08-11T10:26:59.700Z,2
2022-08-11T10:28:15.946Z,1.8
2022-08-11T10:29:32.177Z,1.8
2022-08-11T10:30:48.407Z,1.9
2022-08-11T10:32:04.646Z,2.1
2022-08-11T10:33:20.887Z,2
2022-08-11T10:34:37.129Z,2
2022-08-11T10:35:53.370Z,1.8
2022-08-11T10:37:08.630Z,1.7
2022-08-11T10:38:24.856Z,1.8
2022-08-11T10:39:41.096Z,2
2022-08-11T10:40:57.352Z,2.1
2022-08-11T10:42:13.588Z,1.8
2022-08-11T10:43:29.829Z,1.9
2022-08-11T10:44:46.052Z,2.2
2022-08-11T10:46:02.296Z,2.1
2022-08-11T10:47:18.529Z,1.9
2022-08-11T10:48:34.766Z,1.9
2022-08-11T10:49:51.015Z,2.2
2022-08-11T10:51:07.262Z,1.8
2022-08-11T10:52:23.487Z,2.2
2022-08-11T10:53:38.756Z,1.9
2022-08-11T10:54:54.990Z,1.8
2022-08-11T10:56:11.225Z,2.1
2022-08-11T10:57:27.465Z,2
2022-08-11T10:58:43.705Z,2.4
2022-08-11T10:59:59.942Z,2
2022-08-11T11:01:16.180Z,1.7
2022-08-11T11:02:32.431Z,1.9
2022-08-11T11:03:48.656Z,2
2022-08-11T11:05:04.913Z,2
2022-08-11T11:06:21.146Z,2
2022-08-11T11:07:37.386Z,1.7
2022-08-11T11:08:53.615Z,2.1
2022-08-11T11:10:08.873Z,1.8
2022-08-11T11:11:25.114Z,2
2022-08-11T11:12:41.345Z,1.8
2022-08-11T11:13:57.587Z,1.8
2022-08-11T11:15:13.835Z,1.6
2022-08-11T11:16:30.065Z,1.9
2022-08-11T11:17:46.312Z,1.8
2022-08-11T11:19:02.557Z,1.9
2022-08-11T11:20:18.787Z,1.6
2022-08-11T11:21:35.040Z,1.7
2022-08-11T11:22:51.261Z,2
2022-08-11T11:24:07.508Z,1.6
2022-08-11T11:25:23.760Z,1.8
2022-08-11T11:26:39.014Z,1.9
2022-08-11T11:27:55.242Z,1.6
2022-08-11T11:29:11.488Z,1.8
2022-08-11T11:30:26.744Z,1.7
2022-08-11T11:31:42.983Z,1.9
2022-08-11T11:32:59.222Z,1.8
2022-08-11T11:34:15.469Z,2
2022-08-11T11:35:31.701Z,1.8
2022-08-11T11:36:47.942Z,1.7
2022-08-11T11:38:04.176Z,1.8
2022-08-11T11:39:20.421Z,1.6
2022-08-11T11:40:36.667Z,1.8
2022-08-11T11:41:52.895Z,1.5
2022-08-11T11:43:09.143Z,1.8
2022-08-11T11:44:25.388Z,1.7
2022-08-11T11:45:41.619Z,1.7
2022-08-11T11:46:56.891Z,1.8
2022-08-11T11:48:13.116Z,1.7
2022-08-11T11:49:29.362Z,1.7
2022-08-11T11:50:45.611Z,1.6
2022-08-11T11:52:01.835Z,1.7
2022-08-11T11:53:18.078Z,2.1
2022-08-11T11:54:34.318Z,1.7
2022-08-11T11:55:50.564Z,1.6
2022-08-11T11:57:06.799Z,1.6
2022-08-11T11:58:23.039Z,2
2022-08-11T11:59:39.289Z,1.6
2022-08-11T12:00:55.523Z,1.8
2022-08-11T12:02:11.766Z,1.4
2022-08-11T12:03:27.025Z,1.8
2022-08-11T12:04:43.269Z,1.9
2022-08-11T12:05:59.510Z,1.9
2022-08-11T12:07:15.732Z,1.7
2022-08-11T12:08:31.979Z,1.7
2022-08-11T12:09:48.221Z,1.7
2022-08-11T12:11:04.467Z,1.7
2022-08-11T12:12:20.695Z,1.5
2022-08-11T12:13:36.949Z,1.9
2022-08-11T12:14:53.184Z,1.6
2022-08-11T12:16:09.412Z,1.8
2022-08-11T12:17:25.671Z,1.6
2022-08-11T12:18:41.909Z,1.7
2022-08-11T12:21:13.392Z,1.8
2022-08-11T12:22:29.648Z,1.5
2022-08-11T12:23:45.874Z,1.8
2022-08-11T12:25:02.126Z,1.6
2022-08-11T12:26:18.361Z,1.8
2022-08-11T12:27:34.597Z,1.7
2022-08-11T12:28:50.837Z,1.8
2022-08-11T12:30:07.085Z,1.6
2022-08-11T12:31:23.324Z,1.8
2022-08-11T12:32:39.560Z,1.6
2022-08-11T12:33:55.792Z,1.8
2022-08-11T12:35:12.036Z,1.6
2022-08-11T12:36:27.294Z,1.9
2022-08-11T12:37:43.540Z,1.8
2022-08-11T12:38:59.778Z,1.9
2022-08-11T12:40:16.012Z,2.1
2022-08-11T12:41:32.246Z,1.7
2022-08-11T12:42:48.489Z,1.8
2022-08-11T12:44:04.731Z,1.7
2022-08-11T12:45:20.971Z,2.1
2022-08-11T12:46:37.224Z,1.8
2022-08-11T12:47:53.462Z,1.8
2022-08-11T12:49:09.692Z,2.1
2022-08-11T12:50:25.943Z,1.8
2022-08-11T12:51:42.162Z,1.7
2022-08-11T12:52:57.422Z,2.1
2022-08-11T12:54:13.661Z,1.8
2022-08-11T12:55:29.915Z,1.8
2022-08-11T12:56:46.137Z,2
2022-08-11T12:58:02.381Z,1.8
2022-08-11T12:59:18.633Z,1.9
2022-08-11T13:00:34.875Z,1.7
2022-08-11T13:01:51.095Z,1.7
2022-08-11T13:03:07.336Z,2
2022-08-11T13:04:23.593Z,1.9
2022-08-11T13:05:39.828Z,1.8
2022-08-11T13:06:56.062Z,1.7
2022-08-11T13:08:12.301Z,1.8
2022-08-11T13:09:27.561Z,2
2022-08-11T13:10:43.791Z,2.1
2022-08-11T13:12:00.037Z,2
2022-08-11T13:13:16.274Z,1.7
2022-08-11T13:14:32.515Z,1.8
2022-08-11T13:15:48.749Z,1.8
2022-08-11T13:17:04.983Z,1.8
2022-08-11T13:18:21.239Z,2
2022-08-11T13:19:37.463Z,1.8
2022-08-11T13:20:53.709Z,1.8
2022-08-11T13:22:09.942Z,2.1
2022-08-11T13:23:26.192Z,1.5
2022-08-11T13:24:42.440Z,1.6
2022-08-11T13:25:57.681Z,1.7
2022-08-11T13:27:13.917Z,1.7
2022-08-11T13:28:30.170Z,1.8
2022-08-11T13:29:46.394Z,1.6
2022-08-11T13:31:02.642Z,1.6
2022-08-11T13:32:18.877Z,1.5
2022-08-11T13:33:35.112Z,1.6
2022-08-11T13:34:51.366Z,1.9
2022-08-11T13:36:07.594Z,1.7
2022-08-11T13:37:23.835Z,1.7
2022-08-11T13:38:40.073Z,1.6
2022-08-11T13:39:56.319Z,1.8
2022-08-11T13:41:12.550Z,1.8
2022-08-11T13:42:27.817Z,1.8
2022-08-11T13:43:44.058Z,1.6
2022-08-11T13:45:00.290Z,1.6
2022-08-11T13:46:16.542Z,1.8
2022-08-11T13:47:32.767Z,1.7
2022-08-11T13:48:49.015Z,2
2022-08-11T13:50:05.250Z,1.8
2022-08-11T13:51:21.496Z,1.7
2022-08-11T13:52:37.728Z,1.8
2022-08-11T13:53:53.963Z,1.6
2022-08-11T13:55:10.207Z,1.8
2022-08-11T13:56:26.453Z,1.9
2022-08-11T13:57:42.686Z,1.7
2022-08-11T13:58:57.950Z,1.8
2022-08-11T14:00:14.175Z,1.9
2022-08-11T14:01:30.427Z,2.1
2022-08-11T14:02:46.669Z,1.7
2022-08-11T14:04:02.896Z,1.8
2022-08-11T14:05:19.134Z,1.9
2022-08-11T14:06:35.376Z,1.9
2022-08-11T14:07:51.630Z,1.8
2022-08-11T14:09:07.853Z,1.9
2022-08-11T14:10:24.097Z,1.8
2022-08-11T14:11:40.337Z,1.8
2022-08-11T14:12:56.581Z,1.8
2022-08-11T14:14:12.824Z,1.7
2022-08-11T14:15:28.080Z,1.7
2022-08-11T14:16:44.316Z,2.1
2022-08-11T14:18:00.553Z,1.8
2022-08-11T14:19:16.805Z,1.7
2022-08-11T14:20:33.044Z,1.4
2022-08-11T14:21:49.282Z,1.6
2022-08-11T14:23:05.510Z,1.8
2022-08-11T14:24:21.753Z,1.6
2022-08-11T14:25:37.999Z,1.9
2022-08-11T14:26:54.222Z,1.7
2022-08-11T14:28:10.482Z,1.6
2022-08-11T14:29:26.715Z,1.8
2022-08-11T14:30:42.948Z,1.4
2022-08-11T14:31:58.208Z,1.7
2022-08-11T14:33:14.000Z,1.7
2022-08-11T14:34:30.676Z,1.7
2022-08-11T14:35:46.934Z,1.8
2022-08-11T14:37:03.161Z,1.6
2022-08-11T14:38:19.409Z,1.7
2022-08-11T14:39:35.654Z,1.8
2022-08-11T14:40:51.882Z,1.6
2022-08-11T14:42:08.122Z,1.9
2022-08-11T14:43:24.356Z,1.6
2022-08-11T14:44:40.602Z,1.6
2022-08-11T14:45:56.833Z,1.6
2022-08-11T14:47:13.091Z,1.5
2022-08-11T14:48:28.332Z,1.6
2022-08-11T14:49:44.580Z,1.6
2022-08-11T14:51:00.808Z,1.6
2022-08-11T14:52:17.064Z,1.8
2022-08-11T14:53:33.296Z,1.6
2022-08-11T14:54:49.528Z,1.6
2022-08-11T14:56:05.767Z,1.7
2022-08-11T14:57:22.025Z,1.5
2022-08-11T14:58:38.255Z,1.5
2022-08-11T14:59:54.503Z,1.7
2022-08-11T15:01:10.729Z,1.6
2022-08-11T15:02:26.972Z,1.7
2022-08-11T15:03:43.215Z,1.7
2022-08-11T15:04:58.472Z,1.8
2022-08-11T15:06:14.704Z,1.6
2022-08-11T15:07:30.957Z,1.7
2022-08-11T15:08:47.187Z,1.6
2022-08-11T15:10:03.439Z,1.6
2022-08-11T15:11:19.665Z,1.6
2022-08-11T15:12:35.901Z,1.5
2022-08-11T15:13:52.153Z,1.7
2022-08-11T15:15:08.391Z,1.9
2022-08-11T15:16:24.620Z,2
2022-08-11T15:17:40.863Z,1.9
2022-08-11T15:18:57.105Z,1.7
2022-08-11T15:20:13.347Z,1.7
2022-08-11T15:21:28.593Z,1.4
2022-08-11T15:22:44.837Z,1.4
2022-08-11T15:24:01.078Z,1.4
2022-08-11T15:25:17.332Z,1.6
2022-08-11T15:26:33.564Z,1.4
2022-08-11T15:27:49.797Z,1.6
2022-08-11T15:29:06.041Z,1.6
2022-08-11T15:30:22.278Z,1.5
2022-08-11T15:31:38.515Z,1.6
2022-08-11T15:32:54.771Z,1.5
2022-08-11T15:34:11.000Z,1.6
2022-08-11T15:35:27.248Z,1.7
2022-08-11T15:36:43.482Z,1.6
2022-08-11T15:37:58.739Z,1.6
2022-08-11T15:39:14.971Z,1.4
2022-08-11T15:40:31.218Z,1.6
2022-08-11T15:41:47.464Z,1.5
2022-08-11T15:43:03.692Z,1.5
2022-08-11T15:44:19.933Z,1.4
2022-08-11T15:45:35.208Z,1.4
2022-08-11T15:46:51.429Z,1.6
2022-08-11T15:48:07.680Z,1.4
2022-08-11T15:49:23.919Z,1.4
2022-08-11T15:50:40.163Z,1.3
2022-08-11T15:51:56.388Z,1.9
2022-08-11T15:53:12.634Z,1.6
2022-08-11T15:54:28.872Z,1.4
2022-08-11T15:55:45.123Z,1.6
2022-08-11T15:57:01.356Z,1.4
2022-08-11T15:58:17.602Z,1.5
2022-08-11T15:59:33.837Z,1.4
2022-08-11T16:00:50.085Z,1.6
2022-08-11T16:02:05.335Z,1.5
2022-08-11T16:03:21.564Z,1.7
2022-08-11T16:04:37.812Z,1.5
2022-08-11T16:05:54.048Z,1.6
2022-08-11T16:07:10.286Z,1.6
2022-08-11T16:08:26.535Z,1.6
2022-08-11T16:09:42.778Z,1.7
2022-08-11T16:10:59.018Z,1.6
2022-08-11T16:12:15.250Z,1.6
2022-08-11T16:13:31.496Z,1.5
2022-08-11T16:14:47.735Z,1.6
2022-08-11T16:16:03.967Z,1.6
2022-08-11T16:17:20.203Z,1.7
2022-08-11T16:18:35.458Z,1.3
2022-08-11T16:19:51.712Z,1.9
2022-08-11T16:21:07.952Z,1.3
2022-08-11T16:22:24.179Z,1.7
2022-08-11T16:23:40.431Z,1.6
2022-08-11T16:24:56.682Z,1.6
2022-08-11T16:26:12.907Z,1.5
2022-08-11T16:27:29.142Z,1.5
2022-08-11T16:28:45.392Z,1.6
2022-08-11T16:30:01.621Z,1.4
2022-08-11T16:31:17.858Z,1.8
2022-08-11T16:32:34.103Z,1.6
2022-08-11T16:33:50.348Z,1.6
2022-08-11T16:35:05.596Z,1.5
2022-08-11T16:36:21.841Z,1.5
2022-08-11T16:37:38.083Z,1.4
2022-08-11T16:38:54.318Z,1.4
2022-08-11T16:40:10.553Z,1.4
2022-08-11T16:41:26.794Z,1.4
2022-08-11T16:42:43.044Z,1.4
2022-08-11T16:43:59.281Z,1.4
2022-08-11T16:45:15.523Z,1.4
2022-08-11T16:46:31.761Z,1.2
2022-08-11T16:47:48.012Z,1.4
2022-08-11T16:49:04.248Z,1.3
2022-08-11T16:50:20.497Z,1.3
2022-08-11T16:51:35.729Z,1.2
2022-08-11T16:52:51.980Z,1.2
2022-08-11T16:54:08.210Z,1.3
2022-08-11T16:55:24.468Z,1.2
2022-08-11T16:56:40.693Z,1.3
2022-08-11T16:57:56.940Z,1.3
2022-08-11T16:59:13.188Z,1.2
2022-08-11T17:00:29.423Z,1
2022-08-11T17:01:45.658Z,1.1
2022-08-11T17:03:01.891Z,1.3
2022-08-11T17:04:18.135Z,1.2
2022-08-11T17:05:34.379Z,1.2
2022-08-11T17:06:50.621Z,1.1
2022-08-11T17:08:05.863Z,0.9
2022-08-11T17:09:22.121Z,1.3
2022-08-11T17:10:38.341Z,1.1
2022-08-11T17:11:54.592Z,1.1
2022-08-11T17:13:10.826Z,1
2022-08-11T17:14:27.062Z,1
2022-08-11T17:15:43.318Z,1.1
2022-08-11T17:16:59.558Z,1
2022-08-11T17:18:15.782Z,1
2022-08-11T17:19:32.022Z,1
2022-08-11T17:20:48.260Z,1.4
2022-08-11T17:22:04.517Z,1.1
2022-08-11T17:23:20.758Z,1
2022-08-11T17:24:36.015Z,1.1
2022-08-11T17:25:52.254Z,1.4
2022-08-11T17:27:08.477Z,1.1
2022-08-11T17:28:24.727Z,1.2
2022-08-11T17:29:40.967Z,1.3
2022-08-11T17:30:57.198Z,1.2
2022-08-11T17:32:13.447Z,1
2022-08-11T17:33:29.672Z,1.1
2022-08-11T17:34:45.912Z,0.9
2022-08-11T17:36:02.155Z,1.1
2022-08-11T17:37:18.408Z,1
2022-08-11T17:38:34.649Z,1.1
2022-08-11T17:39:50.887Z,1.1
2022-08-11T17:41:06.140Z,1
2022-08-11T17:42:22.377Z,1.1